Aldar, Mongolia
Current Conditions -  °F | °C
As of 10:00 PM on Wednesday 28 Jan 2015 (Local Time) from UIII Reporting Station
Smoke Smoke  
Wind Chill: -8°   Ceiling: 20000
Heat Index: -8°   Visibility: 2.1mi
Dew Point: -13°   Wind: 2mph
Humidity: 77%   Direction: NA
Pressure: 30.42"   Gusts: NA
Location:  47.7°N, 96.6°E
Report Text: UIII 281400Z VRB01MPS 3500 FU FEW100 OVC200 M22/M25 Q1030 NOSIGRMK QFE727/0969 30810360
Loading
Personal Weather Stations






























Interactive Weather Map New forecast layout! Learn more

10-Day Weather Forecast

Advertisements
Track Severe Weather on mobile